Ceske Budejovice, Czech Republic

8:12 AM CEST on May 26, 2015 (GMT +0200)
IJIHOU019 | | Change Station
CLOSE
Current Station
Personal Weather Station
Location: Veseli nad Luznici, Jihocesky
Elevation: 1427 ft
Nearby Weather Stations

Elev 1427 ft 49.18 °N, 14.70 °E | Updated 2 minutes ago

Overcast
Overcast
55.8 °F
Feels Like 55.8 °F
N
0.0
Wind Variable Wind from North
Gusts 0.0 mph

Today
High -- | Low -- °F
--% Chance of Precip.
Yesterday
High -- | Low -- °F
Precip. -- in
5:08 AM 8:50 PM
First Quarter, 55% visible
Pressure 29.89 in
Visibility 6.2 miles
Clouds Few 1400 ft
Mostly Cloudy 6000 ft
Dew Point 48 °F
Humidity 74%
Rainfall 0.00 in
Snow Depth Not available.
UV 1 out of 12
Pollen Not available.
Air Quality Not available.
Flu Activity Not available.
METAR LOWL 260550Z 26007KT 9999 -SHRA FEW014 BKN060 13/11 Q1012 NOSIG

More Conditions Fewer Conditions

Pressure 29.89 in
Visibility 6.2 miles
Clouds Few 1400 ft
Mostly Cloudy 6000 ft
Dew Point 48 °F
Humidity 74%
Rainfall 0.00 in
Snow Depth Not available.
UV 1 out of 12
Pollen Not available.
Air Quality Not available.
Flu Activity Not available.
METAR LOWL 260550Z 26007KT 9999 -SHRA FEW014 BKN060 13/11 Q1012 NOSIG

More Conditions Fewer Conditions

10-Day Weather Forecast

Almanac

Astronomy

May. 26, 2015 Rise Set
Actual Time
Civil Twilight
Nautical Twilight
Astronomical Twilight
Moon
Length of Visible Light
Length of Day
Tomorrow will be .
, % of the Moon is Illuminated

Today's Extremes

Country Highs Country Lows

Community

WunderPhotos

Upload Photos

1,824,294 photos uploaded!

WunderBlogs® & News

Nearby

Air Quality

  Air Quality AQ Index Pollutant
Not available.

Snow Depth

Station Depth Elevation

Earthquake Activity

City Distance Mag. Time & Date
Minimum magnitude displayed is 2.5.

Coastal Water Temperatures

Place Temperature

Stations

Nearby Weather Stations

Station Location Temp. Windchill Dew Point Humidity Wind Precip. Elev Updated Type